Time;durP1;ratioP1;P1;durP2;ratioP2;P2;SDS_P1;SDS_P2;PMS_P1;PMS_P2;Temp;Humidity;BMP_temperature;BMP_pressure;BME280_temperature;BME280_humidity;BME280_pressure;Samples;Min_cycle;Max_cycle;Signal;HPM_P1;HPM_P2
2022/02/24 00:00:14;;;;;;;4.00;2.57;;;4.40;99.90;;;;;;5095913;28;20404;-70
2022/02/24 00:02:41;;;;;;;5.25;4.35;;;4.40;99.90;;;;;;5095937;28;20160;-69
2022/02/24 00:05:07;;;;;;;2.80;2.60;;;4.40;99.90;;;;;;5095533;28;20264;-68
2022/02/24 00:07:33;;;;;;;4.95;3.20;;;4.40;99.90;;;;;;5095754;28;20168;-68
2022/02/24 00:09:58;;;;;;;3.97;2.50;;;4.40;99.90;;;;;;5095819;28;20642;-68
2022/02/24 00:12:24;;;;;;;2.83;2.53;;;4.50;99.90;;;;;;5095442;28;20183;-68
2022/02/24 00:14:52;;;;;;;6.35;3.05;;;4.50;99.90;;;;;;5094818;28;20200;-68
2022/02/24 00:17:18;;;;;;;4.80;2.42;;;4.50;99.90;;;;;;5095488;28;20253;-67
2022/02/24 00:19:44;;;;;;;4.95;2.35;;;4.60;99.90;;;;;;5095352;28;20179;-68
2022/02/24 00:22:10;;;;;;;3.50;3.30;;;4.60;99.90;;;;;;5095468;28;20558;-68
2022/02/24 00:24:36;;;;;;;3.38;2.85;;;4.60;99.90;;;;;;5093689;28;20192;-69
2022/02/24 00:27:01;;;;;;;2.70;2.50;;;4.70;99.90;;;;;;5095255;28;20179;-68
2022/02/24 00:29:27;;;;;;;3.10;2.80;;;4.70;99.90;;;;;;5093879;28;20267;-69
2022/02/24 00:31:53;;;;;;;3.23;2.57;;;4.80;99.90;;;;;;5095149;28;20175;-69
2022/02/24 00:34:22;;;;;;;3.80;2.93;;;4.90;99.90;;;;;;5094648;28;20196;-69
2022/02/24 00:36:52;;;;;;;3.25;2.15;;;5.00;99.90;;;;;;5095199;28;20158;-68
2022/02/24 00:39:19;;;;;;;2.88;2.63;;;5.10;99.90;;;;;;5095216;28;20174;-68
2022/02/24 00:41:45;;;;;;;3.03;2.83;;;5.10;99.90;;;;;;5094872;28;20168;-67
2022/02/24 00:44:10;;;;;;;2.30;2.10;;;5.20;99.90;;;;;;5094770;28;20195;-68
2022/02/24 00:46:36;;;;;;;3.13;2.93;;;5.20;99.90;;;;;;5094908;28;20176;-68
2022/02/24 00:49:01;;;;;;;2.80;2.60;;;5.20;99.90;;;;;;5094829;28;20172;-68
2022/02/24 00:51:27;;;;;;;4.03;3.63;;;5.30;99.90;;;;;;5094728;28;20664;-69
2022/02/24 00:53:53;;;;;;;1.70;1.50;;;5.30;99.90;;;;;;5094416;28;20249;-68
2022/02/24 00:56:18;;;;;;;1.30;1.27;;;5.40;99.90;;;;;;5094723;28;20208;-69
2022/02/24 00:58:44;;;;;;;3.90;2.43;;;5.50;99.90;;;;;;5094658;28;20168;-69
2022/02/24 01:01:09;;;;;;;3.80;2.23;;;5.60;99.90;;;;;;5094580;28;20233;-68
2022/02/24 01:03:35;;;;;;;2.77;2.30;;;5.60;99.90;;;;;;5094191;28;20237;-69
2022/02/24 01:06:01;;;;;;;2.40;1.80;;;5.70;99.90;;;;;;5094488;28;20176;-70
2022/02/24 01:08:26;;;;;;;4.50;2.30;;;5.70;99.90;;;;;;5093281;28;20173;-68
2022/02/24 01:10:52;;;;;;;1.97;1.80;;;5.70;99.90;;;;;;5094516;28;20297;-70
2022/02/24 01:13:18;;;;;;;2.43;1.90;;;5.80;99.90;;;;;;5094022;28;20251;-69
2022/02/24 01:15:44;;;;;;;2.73;2.53;;;5.80;99.90;;;;;;5094255;28;20200;-69
2022/02/24 01:18:10;;;;;;;2.33;2.13;;;5.80;99.90;;;;;;5094595;28;20412;-69
2022/02/24 01:20:36;;;;;;;2.08;1.80;;;5.90;99.90;;;;;;5094462;28;20160;-69
2022/02/24 01:23:03;;;;;;;1.77;1.67;;;6.00;99.90;;;;;;5094103;28;20168;-68
2022/02/24 01:25:30;;;;;;;8.52;3.58;;;5.90;99.90;;;;;;5094059;28;20228;-68
2022/02/24 01:27:55;;;;;;;3.10;2.90;;;5.90;99.90;;;;;;5094230;28;20196;-68
2022/02/24 01:30:21;;;;;;;2.70;2.50;;;5.80;99.90;;;;;;5094235;28;20522;-68
2022/02/24 01:32:47;;;;;;;3.27;2.83;;;5.60;99.90;;;;;;5094383;28;20212;-70
2022/02/24 01:35:13;;;;;;;3.78;2.92;;;5.50;99.90;;;;;;5094538;28;20199;-68
2022/02/24 01:37:38;;;;;;;3.33;2.77;;;5.40;99.90;;;;;;5094856;28;20575;-69
2022/02/24 01:40:05;;;;;;;2.20;2.00;;;5.40;99.90;;;;;;5094526;28;20174;-69
2022/02/24 01:42:31;;;;;;;2.47;2.05;;;5.50;99.90;;;;;;5094559;28;20171;-70
2022/02/24 01:44:58;;;;;;;2.40;2.30;;;5.50;99.90;;;;;;5093965;28;20196;-68
2022/02/24 01:47:24;;;;;;;2.22;2.13;;;5.50;99.90;;;;;;5094341;28;20690;-69
2022/02/24 01:49:50;;;;;;;4.88;2.20;;;5.50;99.90;;;;;;5095582;28;20191;-67
2022/02/24 01:52:15;;;;;;;2.57;2.37;;;5.50;99.90;;;;;;5096861;28;20643;-68
2022/02/24 01:54:41;;;;;;;2.63;2.43;;;5.60;99.90;;;;;;5096907;28;20275;-68
2022/02/24 01:57:09;;;;;;;2.57;2.20;;;5.60;99.90;;;;;;5099294;28;20251;-68
2022/02/24 01:59:35;;;;;;;2.95;2.70;;;5.60;99.90;;;;;;5098988;28;20390;-69
2022/02/24 02:02:01;;;;;;;2.07;1.97;;;5.60;99.90;;;;;;5097983;28;20168;-69
2022/02/24 02:04:26;;;;;;;1.90;1.80;;;5.60;99.90;;;;;;5095833;28;20505;-68
2022/02/24 02:06:54;;;;;;;2.60;2.40;;;5.60;99.90;;;;;;5096209;28;20422;-69
2022/02/24 02:09:20;;;;;;;1.88;1.77;;;5.60;99.90;;;;;;5096345;28;20240;-69
2022/02/24 02:11:47;;;;;;;3.05;2.35;;;5.60;99.90;;;;;;5096681;28;20177;-69
2022/02/24 02:14:13;;;;;;;3.90;2.92;;;5.60;99.90;;;;;;5096311;28;20282;-69
2022/02/24 02:16:43;;;;;;;2.35;2.20;;;5.60;99.90;;;;;;5096707;28;20558;-68
2022/02/24 02:19:09;;;;;;;2.67;2.47;;;5.50;99.90;;;;;;5096560;28;20174;-69
2022/02/24 02:21:35;;;;;;;2.67;2.53;;;5.50;99.90;;;;;;5095360;28;20633;-68
2022/02/24 02:24:01;;;;;;;4.35;2.55;;;5.40;99.90;;;;;;5094744;28;20208;-68
2022/02/24 02:26:27;;;;;;;3.07;2.20;;;5.40;99.90;;;;;;5092900;28;20168;-68
2022/02/24 02:28:52;;;;;;;2.53;2.33;;;5.40;99.90;;;;;;5093418;28;20574;-68
2022/02/24 02:31:21;;;;;;;2.00;1.80;;;5.40;99.90;;;;;;5093334;28;20165;-68
2022/02/24 02:33:47;;;;;;;1.85;1.77;;;5.30;99.90;;;;;;5091637;28;20587;-69
2022/02/24 02:36:12;;;;;;;4.77;3.97;;;5.30;99.90;;;;;;5093575;28;20204;-67
2022/02/24 02:38:38;;;;;;;5.40;4.13;;;5.40;99.90;;;;;;5093191;28;20237;-68
2022/02/24 02:41:04;;;;;;;3.13;2.90;;;5.40;99.90;;;;;;5093152;28;20259;-70
2022/02/24 02:43:30;;;;;;;2.57;2.37;;;5.40;99.90;;;;;;5092902;28;20489;-69
2022/02/24 02:45:55;;;;;;;3.77;3.40;;;5.40;99.90;;;;;;5093402;28;20200;-68
2022/02/24 02:48:21;;;;;;;2.53;2.30;;;5.50;99.90;;;;;;5093442;28;20168;-69
2022/02/24 02:50:47;;;;;;;3.87;3.03;;;5.50;99.90;;;;;;5093380;28;20179;-69
2022/02/24 02:53:12;;;;;;;2.67;2.47;;;5.60;99.90;;;;;;5093062;28;20207;-68
2022/02/24 02:55:38;;;;;;;2.73;2.03;;;5.60;99.90;;;;;;5092983;28;20209;-69
2022/02/24 02:58:04;;;;;;;2.63;2.43;;;5.60;99.90;;;;;;5093521;28;20175;-68
2022/02/24 03:00:30;;;;;;;3.27;2.60;;;5.60;99.90;;;;;;5091946;28;20497;-67
2022/02/24 03:02:56;;;;;;;2.77;2.30;;;5.60;99.90;;;;;;5090874;28;20527;-69
2022/02/24 03:05:22;;;;;;;3.03;2.23;;;5.60;99.90;;;;;;5094391;28;20808;-70
2022/02/24 03:07:49;;;;;;;2.28;2.00;;;5.60;99.90;;;;;;5096985;28;20858;-68
2022/02/24 03:10:15;;;;;;;5.65;2.92;;;5.60;99.90;;;;;;5095495;28;20639;-69
2022/02/24 03:12:41;;;;;;;2.90;2.65;;;5.50;99.90;;;;;;5096551;28;20257;-68
2022/02/24 03:15:10;;;;;;;3.90;3.00;;;5.50;99.90;;;;;;5096708;28;20228;-68
2022/02/24 03:17:36;;;;;;;3.10;2.33;;;5.50;99.90;;;;;;5096782;28;20402;-69
2022/02/24 03:20:02;;;;;;;1.90;1.70;;;5.40;99.90;;;;;;5096747;28;20521;-69
2022/02/24 03:22:28;;;;;;;2.85;2.45;;;5.40;99.90;;;;;;5096483;28;20168;-68
2022/02/24 03:24:54;;;;;;;2.70;2.40;;;5.40;99.90;;;;;;5096094;28;20284;-69
2022/02/24 03:27:20;;;;;;;3.50;3.20;;;5.30;99.90;;;;;;5096484;28;20267;-68
2022/02/24 03:29:46;;;;;;;2.37;1.77;;;5.30;99.90;;;;;;5096615;28;20471;-69
2022/02/24 03:32:12;;;;;;;2.47;2.38;;;5.20;99.90;;;;;;5096291;28;20176;-69
2022/02/24 03:34:40;;;;;;;3.27;3.00;;;5.20;99.90;;;;;;5095876;28;20205;-69
2022/02/24 03:37:06;;;;;;;2.40;2.20;;;5.20;99.90;;;;;;5096544;28;20226;-70
2022/02/24 03:39:32;;;;;;;3.15;2.90;;;5.10;99.90;;;;;;5096222;28;20184;-68
2022/02/24 03:41:58;;;;;;;6.07;2.60;;;5.10;99.90;;;;;;5096236;28;20168;-70
2022/02/24 03:44:24;;;;;;;2.40;2.17;;;5.10;99.90;;;;;;5096182;28;20192;-69
2022/02/24 03:46:50;;;;;;;6.97;3.77;;;5.10;99.90;;;;;;5096154;28;20200;-68
2022/02/24 03:49:16;;;;;;;2.67;2.47;;;5.00;99.90;;;;;;5095866;28;20425;-68
2022/02/24 03:51:41;;;;;;;3.70;2.20;;;5.10;99.90;;;;;;5096200;28;20400;-68
2022/02/24 03:54:08;;;;;;;4.33;3.20;;;5.00;99.90;;;;;;5095569;28;20971;-68
2022/02/24 03:56:33;;;;;;;6.85;3.17;;;5.00;99.90;;;;;;5095861;28;20168;-69
2022/02/24 03:58:59;;;;;;;2.93;1.93;;;5.00;99.90;;;;;;5095936;28;20186;-67
2022/02/24 04:01:25;;;;;;;5.97;2.43;;;5.10;99.90;;;;;;5095923;28;20175;-68
2022/02/24 04:03:50;;;;;;;2.50;2.30;;;5.00;99.90;;;;;;5095189;28;20594;-69
2022/02/24 04:06:16;;;;;;;4.20;3.80;;;5.00;99.90;;;;;;5095800;28;20175;-68
2022/02/24 04:08:44;;;;;;;2.58;2.25;;;5.00;99.90;;;;;;5095628;28;20243;-68
2022/02/24 04:11:10;;;;;;;3.22;2.88;;;5.00;99.90;;;;;;5095709;28;20631;-68
2022/02/24 04:13:35;;;;;;;2.60;2.40;;;5.10;99.90;;;;;;5095248;28;20260;-69
2022/02/24 04:16:01;;;;;;;4.83;2.80;;;5.00;99.90;;;;;;5095169;28;20207;-69
2022/02/24 04:18:27;;;;;;;2.67;1.90;;;5.00;99.90;;;;;;5095611;28;20169;-69
2022/02/24 04:20:52;;;;;;;2.37;2.20;;;5.00;99.90;;;;;;5095673;28;20243;-68
2022/02/24 04:23:18;;;;;;;5.83;2.83;;;5.00;99.90;;;;;;5095012;28;20209;-68
2022/02/24 04:25:44;;;;;;;2.73;2.53;;;4.90;99.90;;;;;;5095247;28;20585;-69
2022/02/24 04:28:09;;;;;;;3.23;2.77;;;4.90;99.90;;;;;;5095451;28;20218;-68
2022/02/24 04:30:35;;;;;;;5.40;2.90;;;4.90;99.90;;;;;;5095449;28;20172;-69
2022/02/24 04:33:01;;;;;;;5.00;3.30;;;4.90;99.90;;;;;;5094906;28;20574;-68
2022/02/24 04:35:26;;;;;;;3.87;3.27;;;4.90;99.90;;;;;;5095189;28;20200;-68
2022/02/24 04:37:52;;;;;;;2.77;2.60;;;4.90;99.90;;;;;;5095325;28;20160;-69
2022/02/24 04:40:18;;;;;;;2.90;2.70;;;4.80;99.90;;;;;;5095024;28;20630;-68
2022/02/24 04:42:44;;;;;;;3.50;2.17;;;4.80;99.90;;;;;;5094850;28;20654;-70
2022/02/24 04:45:10;;;;;;;3.22;2.00;;;4.80;99.90;;;;;;5094969;28;20662;-70
2022/02/24 04:47:35;;;;;;;1.70;1.60;;;4.80;99.90;;;;;;5095043;28;20172;-69
2022/02/24 04:50:05;;;;;;;3.70;2.87;;;4.70;99.90;;;;;;5094982;28;20726;-68
2022/02/24 04:52:31;;;;;;;2.53;2.22;;;4.70;99.90;;;;;;5095048;28;20531;-68
2022/02/24 04:54:57;;;;;;;2.80;2.53;;;4.80;99.90;;;;;;5094249;28;20200;-68
2022/02/24 04:57:22;;;;;;;2.60;2.37;;;4.80;99.90;;;;;;5094855;28;20168;-68
2022/02/24 04:59:48;;;;;;;3.13;2.27;;;4.80;99.90;;;;;;5094916;28;20488;-68
2022/02/24 05:02:13;;;;;;;2.30;1.87;;;4.90;99.90;;;;;;5094953;28;20195;-69
2022/02/24 05:04:39;;;;;;;7.73;3.13;;;5.00;99.90;;;;;;5094085;28;20547;-68
2022/02/24 05:07:05;;;;;;;4.20;2.53;;;5.00;99.90;;;;;;5094395;28;20226;-69
2022/02/24 05:09:30;;;;;;;2.97;2.70;;;5.10;99.90;;;;;;5094565;28;20207;-68
2022/02/24 05:11:56;;;;;;;2.20;2.10;;;5.10;99.90;;;;;;5094287;28;20184;-69
2022/02/24 05:14:21;;;;;;;2.80;2.60;;;5.20;99.90;;;;;;5093862;28;20207;-69
2022/02/24 05:16:47;;;;;;;2.20;1.70;;;5.30;99.90;;;;;;5094389;28;20170;-69
2022/02/24 05:19:13;;;;;;;3.50;2.20;;;5.30;99.90;;;;;;5094274;28;20233;-69
2022/02/24 05:21:39;;;;;;;4.35;2.95;;;5.40;99.90;;;;;;5094374;28;20180;-69
2022/02/24 05:24:04;;;;;;;3.37;2.80;;;5.40;99.90;;;;;;5093771;28;20215;-69
2022/02/24 05:26:30;;;;;;;2.67;2.47;;;5.40;99.90;;;;;;5094163;28;20168;-69
2022/02/24 05:28:56;;;;;;;4.28;2.63;;;5.30;99.90;;;;;;5093375;28;20176;-69
2022/02/24 05:31:22;;;;;;;3.80;2.20;;;5.20;99.90;;;;;;5094095;28;20191;-69
2022/02/24 05:33:47;;;;;;;2.13;2.03;;;5.20;99.90;;;;;;5093627;28;20164;-69
2022/02/24 05:36:13;;;;;;;3.17;1.80;;;5.10;99.90;;;;;;5094031;28;20168;-69
2022/02/24 05:38:38;;;;;;;2.60;1.73;;;5.00;99.90;;;;;;5093979;28;20161;-69
2022/02/24 05:41:04;;;;;;;2.73;2.10;;;4.90;99.90;;;;;;5094046;28;20168;-68
2022/02/24 05:43:30;;;;;;;2.53;2.40;;;4.80;99.90;;;;;;5093451;28;20215;-69
2022/02/24 05:45:56;;;;;;;4.37;2.17;;;4.70;99.90;;;;;;5093744;28;20188;-69
2022/02/24 05:48:22;;;;;;;2.58;2.38;;;4.70;99.90;;;;;;5093667;28;20168;-68
2022/02/24 05:50:47;;;;;;;2.70;2.60;;;4.70;99.90;;;;;;5093963;28;20460;-68
2022/02/24 05:53:13;;;;;;;5.57;3.33;;;4.60;99.90;;;;;;5093374;28;20182;-68
2022/02/24 05:55:39;;;;;;;4.20;2.60;;;4.50;99.90;;;;;;5092172;28;20210;-68
2022/02/24 05:58:04;;;;;;;2.87;2.60;;;4.50;99.90;;;;;;5093787;28;20255;-68
2022/02/24 06:00:31;;;;;;;8.53;3.80;;;4.50;99.90;;;;;;5093525;28;20164;-69
2022/02/24 06:02:56;;;;;;;2.17;2.05;;;4.50;99.90;;;;;;5091438;28;20422;-70
2022/02/24 06:05:22;;;;;;;4.20;3.77;;;4.50;99.90;;;;;;5092492;28;20677;-68
2022/02/24 06:07:47;;;;;;;3.10;2.73;;;4.50;99.90;;;;;;5093236;28;20180;-68
2022/02/24 06:10:14;;;;;;;3.50;2.83;;;4.60;99.90;;;;;;5093457;28;20176;-68
2022/02/24 06:12:40;;;;;;;3.38;3.00;;;4.60;99.90;;;;;;5093152;28;20580;-73
2022/02/24 06:15:08;;;;;;;2.15;2.05;;;4.60;99.90;;;;;;5092979;28;20206;-66
2022/02/24 06:17:35;;;;;;;2.05;1.95;;;4.50;99.90;;;;;;5091924;28;20214;-67
2022/02/24 06:20:01;;;;;;;2.28;2.17;;;4.50;99.90;;;;;;5092453;28;20190;-70
2022/02/24 06:22:26;;;;;;;3.03;2.70;;;4.60;99.90;;;;;;5092963;28;20169;-67
2022/02/24 06:24:52;;;;;;;3.27;2.97;;;4.60;99.90;;;;;;5092833;28;20596;-67
2022/02/24 06:27:18;;;;;;;5.17;3.90;;;4.80;99.90;;;;;;5092645;28;20172;-67
2022/02/24 06:29:44;;;;;;;4.45;3.00;;;4.80;99.90;;;;;;5092212;28;20180;-68
2022/02/24 06:32:11;;;;;;;4.28;3.63;;;4.90;99.90;;;;;;5091397;28;20176;-67
2022/02/24 06:34:37;;;;;;;2.65;2.22;;;5.00;99.90;;;;;;5091179;28;20205;-67
2022/02/24 06:37:03;;;;;;;4.23;2.73;;;5.10;99.90;;;;;;5091274;28;20181;-67
2022/02/24 06:39:29;;;;;;;4.20;3.80;;;5.30;99.90;;;;;;5093963;28;20182;-67
2022/02/24 06:41:54;;;;;;;4.47;2.60;;;5.40;99.90;;;;;;5097273;28;20753;-68
2022/02/24 06:44:20;;;;;;;4.70;4.30;;;5.50;99.90;;;;;;5096351;28;20201;-66
2022/02/24 06:46:45;;;;;;;4.20;2.77;;;5.50;99.90;;;;;;5094270;28;20209;-72
2022/02/24 06:49:12;;;;;;;4.30;3.17;;;5.60;99.90;;;;;;5091467;28;20172;-69
2022/02/24 06:51:38;;;;;;;4.05;2.83;;;5.70;99.90;;;;;;5091953;28;20203;-68
2022/02/24 06:54:04;;;;;;;11.67;6.03;;;5.70;99.90;;;;;;5090953;28;20233;-68
2022/02/24 06:56:29;;;;;;;2.50;2.30;;;5.80;99.90;;;;;;5091163;28;20169;-67
2022/02/24 06:58:55;;;;;;;3.33;3.03;;;5.80;99.90;;;;;;5091754;28;20242;-67
2022/02/24 07:01:21;;;;;;;3.33;2.17;;;5.90;99.90;;;;;;5095284;28;20178;-66
2022/02/24 07:03:47;;;;;;;4.40;3.10;;;6.00;99.90;;;;;;5096087;28;20217;-66
2022/02/24 07:06:12;;;;;;;5.03;3.25;;;6.10;99.90;;;;;;5096546;28;20160;-69
2022/02/24 07:08:39;;;;;;;3.20;2.90;;;6.20;99.90;;;;;;5096278;28;20176;-67
2022/02/24 07:11:05;;;;;;;3.05;2.80;;;6.30;99.90;;;;;;5096055;28;20166;-68
2022/02/24 07:13:31;;;;;;;3.22;2.20;;;6.50;99.90;;;;;;5096452;28;20586;-67
2022/02/24 07:15:57;;;;;;;7.40;2.40;;;6.50;99.90;;;;;;5096372;28;20235;-68
2022/02/24 07:18:22;;;;;;;1.90;1.80;;;6.60;99.90;;;;;;5096342;28;20413;-67
2022/02/24 07:20:48;;;;;;;2.70;2.50;;;6.70;99.90;;;;;;5095821;28;21011;-71
2022/02/24 07:23:14;;;;;;;3.33;2.67;;;6.90;99.90;;;;;;5094064;28;20175;-66
2022/02/24 07:25:40;;;;;;;3.90;2.60;;;7.00;99.90;;;;;;5095539;28;20244;-66
2022/02/24 07:28:07;;;;;;;2.08;1.98;;;7.10;99.90;;;;;;5095911;28;20182;-67
2022/02/24 07:30:35;;;;;;;2.78;2.20;;;7.20;99.90;;;;;;5094927;28;20172;-66
2022/02/24 07:33:00;;;;;;;3.00;2.80;;;7.40;99.90;;;;;;5093793;28;20183;-66
2022/02/24 07:35:26;;;;;;;2.70;2.57;;;7.40;99.90;;;;;;5095935;28;20535;-67
2022/02/24 07:37:51;;;;;;;3.33;2.60;;;7.50;99.90;;;;;;5095329;28;20257;-66
2022/02/24 07:40:17;;;;;;;2.87;2.53;;;7.50;99.90;;;;;;5095785;28;20170;-67
2022/02/24 07:42:43;;;;;;;4.10;3.60;;;7.70;99.90;;;;;;5095498;28;20171;-72
2022/02/24 07:45:09;;;;;;;3.17;2.87;;;7.80;99.90;;;;;;5095934;28;20199;-67
2022/02/24 07:47:35;;;;;;;2.45;2.25;;;7.90;99.90;;;;;;5096198;28;20638;-66
2022/02/24 07:50:00;;;;;;;4.43;3.23;;;8.10;99.90;;;;;;5094436;28;20178;-67
2022/02/24 07:52:26;;;;;;;2.93;2.63;;;8.20;99.90;;;;;;5094798;28;20221;-68
2022/02/24 07:54:52;;;;;;;2.30;2.10;;;8.40;99.90;;;;;;5095153;28;20286;-67
2022/02/24 07:57:17;;;;;;;3.60;2.53;;;8.50;99.90;;;;;;5095658;28;20160;-68
2022/02/24 07:59:43;;;;;;;2.17;2.03;;;8.60;99.90;;;;;;5095135;28;20179;-64
2022/02/24 08:02:09;;;;;;;3.93;3.50;;;8.60;99.90;;;;;;5095293;28;20172;-67
2022/02/24 08:04:34;;;;;;;2.77;2.57;;;8.70;99.90;;;;;;5094939;28;20199;-67
2022/02/24 08:07:00;;;;;;;2.43;2.23;;;8.90;99.90;;;;;;5094224;28;20172;-67
2022/02/24 08:09:26;;;;;;;2.40;2.27;;;9.10;99.90;;;;;;5095368;28;20172;-67
2022/02/24 08:14:37;;;;;;;3.53;2.80;;;9.70;99.90;;;;;;5095128;28;20732;-66
2022/02/24 08:17:04;;;;;;;2.47;2.27;;;10.20;99.90;;;;;;5095032;28;20189;-68
2022/02/24 08:19:29;;;;;;;2.97;2.77;;;10.70;99.90;;;;;;5093672;28;20913;-69
2022/02/24 08:21:55;;;;;;;2.60;2.40;;;11.20;99.90;;;;;;5095047;28;20432;-69
2022/02/24 08:24:21;;;;;;;5.17;2.80;;;11.60;99.90;;;;;;5093972;28;20211;-70
2022/02/24 08:26:46;;;;;;;5.03;2.33;;;12.00;99.90;;;;;;5093050;28;20183;-70
2022/02/24 08:29:12;;;;;;;2.27;2.07;;;12.40;99.90;;;;;;5091841;28;20274;-73
2022/02/24 08:31:37;;;;;;;2.50;2.03;;;12.90;99.50;;;;;;5091928;28;20191;-69
2022/02/24 08:34:03;;;;;;;2.17;2.07;;;13.30;98.70;;;;;;5089056;28;20225;-70
2022/02/24 08:36:30;;;;;;;1.93;1.73;;;13.90;97.60;;;;;;5094196;28;20189;-69
2022/02/24 08:38:56;;;;;;;2.37;2.20;;;14.30;97.20;;;;;;5094680;28;20543;-70
2022/02/24 08:41:22;;;;;;;2.60;1.87;;;14.90;96.00;;;;;;5094841;28;20859;-72
2022/02/24 08:43:48;;;;;;;1.80;1.70;;;15.50;94.80;;;;;;5074286;28;20464;-72
2022/02/24 08:46:14;;;;;;;1.63;1.60;;;16.10;94.30;;;;;;5073288;28;20184;-70
2022/02/24 08:48:39;;;;;;;3.97;2.83;;;16.70;93.00;;;;;;5073214;28;20454;-70
2022/02/24 08:51:05;;;;;;;2.27;2.07;;;17.30;92.50;;;;;;5089066;28;20180;-69
2022/02/24 08:53:30;;;;;;;3.73;2.50;;;18.10;91.80;;;;;;5094042;28;20263;-71
2022/02/24 08:55:56;;;;;;;2.73;2.53;;;18.70;89.60;;;;;;5094503;28;20212;-69
2022/02/24 08:58:22;;;;;;;3.20;2.40;;;18.90;87.70;;;;;;5094456;28;20172;-69
2022/02/24 09:00:47;;;;;;;3.03;2.73;;;18.70;86.30;;;;;;5094150;28;20198;-71
2022/02/24 09:03:15;;;;;;;3.17;2.73;;;18.50;86.50;;;;;;5093789;28;20190;-69
2022/02/24 09:05:41;;;;;;;2.10;2.00;;;18.70;86.40;;;;;;5093978;28;20193;-68
2022/02/24 09:08:07;;;;;;;4.53;1.83;;;19.00;85.20;;;;;;5093321;28;20396;-68
2022/02/24 09:10:33;;;;;;;2.73;2.53;;;19.60;84.20;;;;;;5094306;28;20418;-68
2022/02/24 09:12:59;;;;;;;2.50;2.03;;;19.90;83.40;;;;;;5094379;28;20251;-68
2022/02/24 09:15:26;;;;;;;2.07;1.63;;;20.40;82.10;;;;;;5094169;28;20257;-67
2022/02/24 09:17:53;;;;;;;2.77;1.90;;;20.60;80.80;;;;;;5094111;28;20380;-67
2022/02/24 09:20:18;;;;;;;1.53;1.43;;;21.10;80.20;;;;;;5094185;28;20369;-68
2022/02/24 09:22:44;;;;;;;1.67;1.57;;;21.30;76.20;;;;;;5093407;28;20792;-69
2022/02/24 09:25:10;;;;;;;1.67;1.43;;;21.40;76.30;;;;;;5093882;28;20196;-66
2022/02/24 09:27:36;;;;;;;3.33;1.60;;;21.50;75.80;;;;;;5094006;28;20216;-70
2022/02/24 09:30:05;;;;;;;2.60;1.53;;;21.40;74.80;;;;;;5094095;28;20237;-69
2022/02/24 09:32:32;;;;;;;1.70;1.60;;;20.60;74.60;;;;;;5093920;28;20476;-71
2022/02/24 09:34:59;;;;;;;1.47;1.37;;;19.50;76.30;;;;;;5093596;28;20519;-68
2022/02/24 09:37:25;;;;;;;1.77;1.67;;;18.70;77.60;;;;;;5092628;28;20422;-69
2022/02/24 09:39:51;;;;;;;1.80;1.20;;;18.10;79.50;;;;;;5093900;28;20403;-68
2022/02/24 09:42:17;;;;;;;2.27;1.47;;;17.30;80.60;;;;;;5093805;28;20822;-68
2022/02/24 09:44:42;;;;;;;1.20;1.10;;;16.70;83.80;;;;;;5093500;28;20195;-68
2022/02/24 09:47:10;;;;;;;1.80;1.70;;;16.10;84.70;;;;;;5092539;28;20475;-69
2022/02/24 09:49:37;;;;;;;1.83;1.73;;;15.70;86.70;;;;;;5093991;28;20182;-69
2022/02/24 09:52:03;;;;;;;1.63;1.53;;;15.30;87.70;;;;;;5093670;28;20425;-69
2022/02/24 09:54:29;;;;;;;2.13;1.30;;;15.00;89.50;;;;;;5093184;28;20454;-67
2022/02/24 09:56:55;;;;;;;1.57;1.47;;;15.00;90.50;;;;;;5092365;28;20824;-68
2022/02/24 09:59:22;;;;;;;1.70;1.60;;;14.90;90.40;;;;;;5093642;28;20175;-70
2022/02/24 10:01:50;;;;;;;1.30;1.30;;;14.90;90.60;;;;;;5092307;28;20168;-68
2022/02/24 10:04:16;;;;;;;2.37;1.47;;;14.80;90.90;;;;;;5093161;28;20475;-69
2022/02/24 10:06:46;;;;;;;1.70;1.60;;;14.80;90.80;;;;;;5094446;28;20817;-68
2022/02/24 10:09:20;;;;;;;2.50;1.77;;;14.80;91.00;;;;;;5094619;28;20255;-69
2022/02/24 10:11:46;;;;;;;3.90;2.13;;;14.80;91.40;;;;;;5093834;28;20409;-69
2022/02/24 10:14:20;;;;;;;2.87;2.23;;;15.30;91.40;;;;;;5094066;28;20454;-69
2022/02/24 10:16:57;;;;;;;2.37;2.23;;;15.80;91.20;;;;;;5094422;28;20402;-69
2022/02/24 10:19:42;;;;;;;2.20;2.00;;;16.40;90.20;;;;;;5094409;28;20407;-69
2022/02/24 10:22:28;;;;;;;1.60;1.50;;;16.90;89.30;;;;;;5095613;28;20486;-69
2022/02/24 10:24:56;;;;;;;1.60;1.50;;;17.30;87.50;;;;;;5092362;28;20442;-69
2022/02/24 10:27:33;;;;;;;1.67;1.57;;;17.50;87.00;;;;;;5096667;28;20406;-69
2022/02/24 10:30:14;;;;;;;2.73;2.50;;;17.50;86.00;;;;;;5095648;28;20407;-68
2022/02/24 10:32:41;;;;;;;1.73;1.63;;;17.50;86.90;;;;;;5096105;28;20810;-72
2022/02/24 10:35:28;;;;;;;1.83;1.40;;;18.00;85.80;;;;;;5093060;28;20458;-68
2022/02/24 10:37:56;;;;;;;1.33;1.23;;;18.40;84.70;;;;;;5093500;28;20774;-68
2022/02/24 10:40:26;;;;;;;1.83;1.73;;;18.90;84.00;;;;;;5093031;28;20415;-68
2022/02/24 10:42:52;;;;;;;1.23;1.13;;;19.00;82.10;;;;;;5093125;28;20378;-70
2022/02/24 10:45:18;;;;;;;1.60;1.40;;;19.00;81.80;;;;;;5092827;28;20439;-68
2022/02/24 10:48:01;;;;;;;1.50;1.40;;;18.80;81.30;;;;;;5093414;28;20482;-69
2022/02/24 10:50:51;;;;;;;1.70;1.60;;;18.40;81.80;;;;;;5093100;28;20406;-68
2022/02/24 10:53:20;;;;;;;1.20;1.20;;;18.00;83.00;;;;;;5093037;28;20735;-70
2022/02/24 10:55:56;;;;;;;1.10;1.10;;;17.80;83.60;;;;;;5092881;28;20462;-70
2022/02/24 10:58:23;;;;;;;1.87;1.77;;;17.60;84.10;;;;;;5092915;28;20408;-68
2022/02/24 11:01:05;;;;;;;1.73;1.23;;;17.50;83.20;;;;;;5092867;28;20398;-69
2022/02/24 11:06:06;;;;;;;0.97;0.97;;;17.30;83.80;;;;;;4974043;28;20503;-68
2022/02/24 11:08:34;;;;;;;2.00;0.97;;;17.30;83.10;;;;;;4972818;28;20475;-69
2022/02/24 11:11:00;;;;;;;2.43;1.70;;;17.20;84.00;;;;;;4973947;28;20507;-70
2022/02/24 11:13:28;;;;;;;1.47;1.37;;;17.20;84.80;;;;;;4973860;28;20885;-67
2022/02/24 11:15:55;;;;;;;3.00;2.00;;;17.10;82.70;;;;;;4973313;28;20466;-68
2022/02/24 11:18:22;;;;;;;4.60;2.00;;;17.10;83.80;;;;;;4974093;28;20408;-64
2022/02/24 11:20:48;;;;;;;1.80;1.43;;;17.30;83.70;;;;;;4973807;28;20404;-70
2022/02/24 11:23:14;;;;;;;1.50;1.40;;;17.50;84.00;;;;;;4973470;28;20381;-71
2022/02/24 11:25:53;;;;;;;2.37;1.77;;;17.80;82.00;;;;;;4972153;28;20446;-73
2022/02/24 11:28:21;;;;;;;1.97;1.83;;;17.80;82.10;;;;;;4976225;28;20419;-70
2022/02/24 11:30:51;;;;;;;3.23;1.63;;;17.80;82.50;;;;;;4977309;28;20462;-71
2022/02/24 11:33:17;;;;;;;0.90;0.90;;;17.60;81.40;;;;;;4977186;28;20964;-69
2022/02/24 11:35:43;;;;;;;2.50;1.50;;;17.40;81.30;;;;;;4976738;28;20430;-70
2022/02/24 11:38:11;;;;;;;1.43;1.07;;;17.20;81.80;;;;;;4977296;28;20744;-71
2022/02/24 11:40:38;;;;;;;2.67;1.00;;;16.90;82.40;;;;;;4977377;28;20169;-65
2022/02/24 11:43:05;;;;;;;1.30;1.20;;;16.60;82.20;;;;;;4976975;28;20411;-71
2022/02/24 11:45:36;;;;;;;0.87;0.87;;;16.40;83.40;;;;;;4976771;28;20423;-72
2022/02/24 11:48:05;;;;;;;0.80;0.80;;;16.20;83.40;;;;;;4976966;28;20404;-69
2022/02/24 11:50:35;;;;;;;0.80;0.80;;;16.10;82.40;;;;;;4976892;28;20414;-71
2022/02/24 11:53:03;;;;;;;0.70;0.70;;;16.00;82.70;;;;;;4977072;28;20427;-69
2022/02/24 11:55:51;;;;;;;1.20;1.10;;;16.00;82.70;;;;;;4975326;28;20853;-71
2022/02/24 11:58:36;;;;;;;1.97;1.50;;;15.90;83.50;;;;;;4976928;28;20789;-69
2022/02/24 12:01:14;;;;;;;1.30;1.20;;;16.00;82.20;;;;;;4976948;28;20826;-70
2022/02/24 12:03:46;;;;;;;3.17;1.00;;;16.00;81.20;;;;;;4975326;28;20927;-69
2022/02/24 12:06:16;;;;;;;3.37;3.27;;;15.90;79.60;;;;;;4975403;28;20963;-69
2022/02/24 12:09:01;;;;;;;2.13;1.57;;;15.80;80.80;;;;;;4976725;28;20518;-69
2022/02/24 12:11:34;;;;;;;2.10;1.40;;;15.80;82.90;;;;;;4976822;28;20413;-70
2022/02/24 12:14:00;;;;;;;1.60;1.50;;;15.90;81.30;;;;;;4976320;28;20767;-70
2022/02/24 12:16:26;;;;;;;0.73;0.73;;;15.90;80.40;;;;;;4975402;28;20532;-71
2022/02/24 12:18:54;;;;;;;1.13;1.03;;;16.00;80.00;;;;;;4975245;28;20174;-69
2022/02/24 12:21:33;;;;;;;1.27;0.80;;;16.00;79.50;;;;;;4975138;28;20424;-70
2022/02/24 12:24:05;;;;;;;0.63;0.50;;;15.90;79.50;;;;;;4976241;28;20410;-70
2022/02/24 12:26:40;;;;;;;0.93;0.93;;;15.80;79.80;;;;;;4974430;28;20444;-68
2022/02/24 12:29:37;;;;;;;0.93;0.93;;;15.70;79.40;;;;;;5001752;28;20423;-71
2022/02/24 12:32:05;;;;;;;1.00;0.83;;;15.70;79.60;;;;;;4993619;28;20393;-69
2022/02/24 12:34:32;;;;;;;1.30;1.23;;;15.70;79.00;;;;;;4993062;28;20584;-69
2022/02/24 12:37:09;;;;;;;1.43;1.43;;;15.70;79.40;;;;;;4994438;28;20418;-66
2022/02/24 12:39:37;;;;;;;2.00;1.80;;;15.70;79.00;;;;;;4990268;28;20386;-69
2022/02/24 12:42:11;;;;;;;1.50;1.10;;;15.70;79.60;;;;;;4992264;28;20449;-69
2022/02/24 12:44:38;;;;;;;1.37;0.73;;;15.70;78.90;;;;;;4989711;28;20781;-70
2022/02/24 12:47:05;;;;;;;0.90;0.90;;;15.70;80.00;;;;;;4989774;28;20416;-65
2022/02/24 12:49:48;;;;;;;0.90;0.90;;;15.70;80.00;;;;;;4989560;28;20429;-68
2022/02/24 12:52:18;;;;;;;1.60;1.50;;;15.80;79.90;;;;;;4972983;28;20436;-67
2022/02/24 12:54:43;;;;;;;1.27;1.17;;;15.70;78.80;;;;;;4994569;28;20550;-68
2022/02/24 12:57:09;;;;;;;1.20;1.10;;;15.60;79.60;;;;;;4995643;28;20483;-70